sensor_id;sensor_type;location;lat;lon;timestamp;P1;durP1;ratioP1;P2;durP2;ratioP2
21488;SDS011;10906;45.194;5.684;2023-04-06T05:02:30;14.40;;;7.40;;
21488;SDS011;10906;45.194;5.684;2023-04-06T05:05:14;13.70;;;6.32;;
21488;SDS011;10906;45.194;5.684;2023-04-06T05:07:59;13.02;;;6.82;;
21488;SDS011;10906;45.194;5.684;2023-04-06T05:10:43;12.95;;;6.40;;
21488;SDS011;10906;45.194;5.684;2023-04-06T05:13:29;11.00;;;6.47;;
21488;SDS011;10906;45.194;5.684;2023-04-06T05:16:14;10.40;;;5.90;;
21488;SDS011;10906;45.194;5.684;2023-04-06T05:18:59;10.32;;;5.53;;
21488;SDS011;10906;45.194;5.684;2023-04-06T05:21:43;11.75;;;6.63;;
21488;SDS011;10906;45.194;5.684;2023-04-06T05:24:28;9.57;;;5.20;;
21488;SDS011;10906;45.194;5.684;2023-04-06T05:27:12;8.55;;;4.97;;
21488;SDS011;10906;45.194;5.684;2023-04-06T05:29:57;9.57;;;4.82;;
21488;SDS011;10906;45.194;5.684;2023-04-06T05:32:41;11.80;;;6.60;;
21488;SDS011;10906;45.194;5.684;2023-04-06T05:35:27;12.25;;;5.68;;
21488;SDS011;10906;45.194;5.684;2023-04-06T05:38:11;7.90;;;4.50;;
21488;SDS011;10906;45.194;5.684;2023-04-06T05:40:56;7.57;;;4.65;;
21488;SDS011;10906;45.194;5.684;2023-04-06T05:43:40;10.27;;;4.93;;
21488;SDS011;10906;45.194;5.684;2023-04-06T05:46:25;10.05;;;4.72;;
21488;SDS011;10906;45.194;5.684;2023-04-06T05:49:10;9.50;;;6.13;;
21488;SDS011;10906;45.194;5.684;2023-04-06T05:51:54;7.22;;;4.80;;
21488;SDS011;10906;45.194;5.684;2023-04-06T05:54:39;9.73;;;4.68;;
21488;SDS011;10906;45.194;5.684;2023-04-06T06:00:08;9.95;;;5.18;;
21488;SDS011;10906;45.194;5.684;2023-04-06T06:02:53;10.70;;;4.72;;
21488;SDS011;10906;45.194;5.684;2023-04-06T06:05:38;9.95;;;4.72;;
21488;SDS011;10906;45.194;5.684;2023-04-06T06:08:22;9.45;;;5.10;;
21488;SDS011;10906;45.194;5.684;2023-04-06T06:11:07;7.40;;;5.05;;
21488;SDS011;10906;45.194;5.684;2023-04-06T06:13:52;9.02;;;5.03;;
21488;SDS011;10906;45.194;5.684;2023-04-06T06:16:36;9.50;;;5.55;;
21488;SDS011;10906;45.194;5.684;2023-04-06T06:19:21;13.48;;;4.88;;
21488;SDS011;10906;45.194;5.684;2023-04-06T06:22:05;12.07;;;6.10;;
21488;SDS011;10906;45.194;5.684;2023-04-06T06:24:50;7.93;;;5.85;;
21488;SDS011;10906;45.194;5.684;2023-04-06T06:27:34;8.55;;;6.30;;
21488;SDS011;10906;45.194;5.684;2023-04-06T06:30:19;10.70;;;5.50;;
21488;SDS011;10906;45.194;5.684;2023-04-06T06:33:03;11.35;;;5.90;;
21488;SDS011;10906;45.194;5.684;2023-04-06T06:35:48;9.10;;;5.72;;
21488;SDS011;10906;45.194;5.684;2023-04-06T06:38:32;12.93;;;5.72;;
21488;SDS011;10906;45.194;5.684;2023-04-06T06:41:16;7.88;;;5.55;;
21488;SDS011;10906;45.194;5.684;2023-04-06T06:44:01;9.55;;;4.60;;
21488;SDS011;10906;45.194;5.684;2023-04-06T06:46:46;5.95;;;4.40;;
21488;SDS011;10906;45.194;5.684;2023-04-06T06:56:57;13.60;;;8.52;;
21488;SDS011;10906;45.194;5.684;2023-04-06T07:04:42;11.27;;;5.40;;
21488;SDS011;10906;45.194;5.684;2023-04-06T07:11:49;12.52;;;5.28;;
21488;SDS011;10906;45.194;5.684;2023-04-06T07:15:50;12.77;;;7.93;;
21488;SDS011;10906;45.194;5.684;2023-04-06T07:19:28;10.05;;;4.90;;
21488;SDS011;10906;45.194;5.684;2023-04-06T07:23:37;10.85;;;5.65;;
21488;SDS011;10906;45.194;5.684;2023-04-06T07:27:00;8.25;;;4.88;;
21488;SDS011;10906;45.194;5.684;2023-04-06T07:57:48;8.85;;;5.78;;
21488;SDS011;10906;45.194;5.684;2023-04-06T08:01:23;8.88;;;4.72;;
21488;SDS011;10906;45.194;5.684;2023-04-06T08:04:36;9.23;;;5.07;;
21488;SDS011;10906;45.194;5.684;2023-04-06T08:07:24;12.10;;;6.47;;
21488;SDS011;10906;45.194;5.684;2023-04-06T08:10:17;11.57;;;5.70;;
21488;SDS011;10906;45.194;5.684;2023-04-06T08:13:41;8.65;;;5.10;;
21488;SDS011;10906;45.194;5.684;2023-04-06T08:16:50;9.57;;;5.50;;
21488;SDS011;10906;45.194;5.684;2023-04-06T08:19:43;9.55;;;5.35;;
21488;SDS011;10906;45.194;5.684;2023-04-06T08:25:59;13.65;;;6.60;;
21488;SDS011;10906;45.194;5.684;2023-04-06T08:28:58;25.42;;;17.00;;
21488;SDS011;10906;45.194;5.684;2023-04-06T08:32:08;15.65;;;9.00;;
21488;SDS011;10906;45.194;5.684;2023-04-06T08:35:33;19.33;;;10.90;;
21488;SDS011;10906;45.194;5.684;2023-04-06T08:38:21;11.95;;;7.10;;
21488;SDS011;10906;45.194;5.684;2023-04-06T08:41:29;10.43;;;5.40;;
21488;SDS011;10906;45.194;5.684;2023-04-06T08:45:12;11.52;;;5.60;;
21488;SDS011;10906;45.194;5.684;2023-04-06T08:48:25;8.15;;;5.28;;
21488;SDS011;10906;45.194;5.684;2023-04-06T08:51:55;10.30;;;5.88;;
21488;SDS011;10906;45.194;5.684;2023-04-06T08:55:11;15.68;;;6.53;;
21488;SDS011;10906;45.194;5.684;2023-04-06T09:02:31;9.63;;;6.85;;
21488;SDS011;10906;45.194;5.684;2023-04-06T09:05:57;13.15;;;9.07;;
21488;SDS011;10906;45.194;5.684;2023-04-06T09:21:18;7.30;;;4.95;;
21488;SDS011;10906;45.194;5.684;2023-04-06T09:43:33;6.25;;;4.03;;
21488;SDS011;10906;45.194;5.684;2023-04-06T09:50:23;4.28;;;3.50;;
21488;SDS011;10906;45.194;5.684;2023-04-06T09:53:44;7.28;;;4.45;;
21488;SDS011;10906;45.194;5.684;2023-04-06T10:00:59;7.90;;;3.92;;
21488;SDS011;10906;45.194;5.684;2023-04-06T10:06:53;7.88;;;5.25;;
21488;SDS011;10906;45.194;5.684;2023-04-06T10:09:42;6.95;;;4.38;;
21488;SDS011;10906;45.194;5.684;2023-04-06T10:12:29;5.35;;;3.58;;
21488;SDS011;10906;45.194;5.684;2023-04-06T10:15:16;12.35;;;6.63;;
21488;SDS011;10906;45.194;5.684;2023-04-06T10:18:07;10.18;;;4.00;;
21488;SDS011;10906;45.194;5.684;2023-04-06T10:21:14;7.68;;;4.88;;
21488;SDS011;10906;45.194;5.684;2023-04-06T10:24:07;8.98;;;4.53;;
21488;SDS011;10906;45.194;5.684;2023-04-06T10:27:06;7.78;;;4.80;;
21488;SDS011;10906;45.194;5.684;2023-04-06T10:30:08;8.18;;;4.47;;
21488;SDS011;10906;45.194;5.684;2023-04-06T10:32:59;6.40;;;5.03;;
21488;SDS011;10906;45.194;5.684;2023-04-06T10:36:13;7.20;;;5.00;;
21488;SDS011;10906;45.194;5.684;2023-04-06T10:39:08;10.18;;;5.53;;
21488;SDS011;10906;45.194;5.684;2023-04-06T10:41:53;8.52;;;4.90;;
21488;SDS011;10906;45.194;5.684;2023-04-06T10:44:58;10.82;;;5.25;;
21488;SDS011;10906;45.194;5.684;2023-04-06T10:47:52;6.95;;;5.10;;
21488;SDS011;10906;45.194;5.684;2023-04-06T10:50:46;10.90;;;4.97;;
21488;SDS011;10906;45.194;5.684;2023-04-06T10:53:44;10.15;;;4.88;;
21488;SDS011;10906;45.194;5.684;2023-04-06T10:56:36;8.32;;;5.18;;
21488;SDS011;10906;45.194;5.684;2023-04-06T10:59:22;9.77;;;5.50;;
21488;SDS011;10906;45.194;5.684;2023-04-06T11:02:08;8.23;;;5.40;;
21488;SDS011;10906;45.194;5.684;2023-04-06T11:07:41;7.05;;;5.30;;
21488;SDS011;10906;45.194;5.684;2023-04-06T11:10:25;6.55;;;5.10;;
21488;SDS011;10906;45.194;5.684;2023-04-06T11:13:10;9.43;;;5.72;;
21488;SDS011;10906;45.194;5.684;2023-04-06T11:15:54;7.00;;;5.03;;
21488;SDS011;10906;45.194;5.684;2023-04-06T11:18:46;8.10;;;5.50;;
21488;SDS011;10906;45.194;5.684;2023-04-06T11:21:39;10.23;;;5.55;;
21488;SDS011;10906;45.194;5.684;2023-04-06T11:24:30;7.68;;;5.38;;
21488;SDS011;10906;45.194;5.684;2023-04-06T11:35:29;6.03;;;4.85;;
21488;SDS011;10906;45.194;5.684;2023-04-06T11:38:17;6.75;;;4.65;;
21488;SDS011;10906;45.194;5.684;2023-04-06T11:41:03;8.10;;;4.85;;
21488;SDS011;10906;45.194;5.684;2023-04-06T11:43:48;8.13;;;4.78;;
21488;SDS011;10906;45.194;5.684;2023-04-06T11:46:32;5.68;;;4.38;;
21488;SDS011;10906;45.194;5.684;2023-04-06T11:49:16;8.07;;;4.80;;
21488;SDS011;10906;45.194;5.684;2023-04-06T11:54:45;8.25;;;5.15;;
21488;SDS011;10906;45.194;5.684;2023-04-06T11:57:30;10.68;;;5.18;;
21488;SDS011;10906;45.194;5.684;2023-04-06T12:00:15;7.53;;;4.93;;
21488;SDS011;10906;45.194;5.684;2023-04-06T12:03:00;5.35;;;4.07;;
21488;SDS011;10906;45.194;5.684;2023-04-06T12:05:44;5.93;;;4.50;;
21488;SDS011;10906;45.194;5.684;2023-04-06T12:08:29;6.57;;;4.57;;
21488;SDS011;10906;45.194;5.684;2023-04-06T12:11:13;10.07;;;4.97;;
21488;SDS011;10906;45.194;5.684;2023-04-06T12:13:57;10.48;;;4.80;;
21488;SDS011;10906;45.194;5.684;2023-04-06T12:16:45;11.32;;;5.18;;
21488;SDS011;10906;45.194;5.684;2023-04-06T12:19:30;6.70;;;4.75;;
21488;SDS011;10906;45.194;5.684;2023-04-06T12:22:14;8.20;;;4.40;;
21488;SDS011;10906;45.194;5.684;2023-04-06T12:24:59;7.13;;;5.05;;
21488;SDS011;10906;45.194;5.684;2023-04-06T12:27:44;7.45;;;5.25;;
21488;SDS011;10906;45.194;5.684;2023-04-06T12:30:28;6.65;;;4.80;;
21488;SDS011;10906;45.194;5.684;2023-04-06T12:33:13;8.55;;;4.55;;
21488;SDS011;10906;45.194;5.684;2023-04-06T12:35:57;6.82;;;4.65;;
21488;SDS011;10906;45.194;5.684;2023-04-06T12:38:42;7.57;;;4.18;;
21488;SDS011;10906;45.194;5.684;2023-04-06T12:41:29;5.90;;;3.83;;
21488;SDS011;10906;45.194;5.684;2023-04-06T12:44:13;4.72;;;4.18;;
21488;SDS011;10906;45.194;5.684;2023-04-06T12:46:58;5.82;;;3.90;;
21488;SDS011;10906;45.194;5.684;2023-04-06T12:49:42;6.05;;;3.70;;
21488;SDS011;10906;45.194;5.684;2023-04-06T12:52:27;5.53;;;3.85;;
21488;SDS011;10906;45.194;5.684;2023-04-06T12:55:13;4.97;;;4.25;;
21488;SDS011;10906;45.194;5.684;2023-04-06T12:57:58;6.50;;;4.35;;
21488;SDS011;10906;45.194;5.684;2023-04-06T13:00:42;6.85;;;4.35;;
21488;SDS011;10906;45.194;5.684;2023-04-06T13:03:26;5.65;;;4.00;;
21488;SDS011;10906;45.194;5.684;2023-04-06T13:06:10;7.53;;;4.60;;
21488;SDS011;10906;45.194;5.684;2023-04-06T13:08:55;6.97;;;3.95;;
21488;SDS011;10906;45.194;5.684;2023-04-06T13:11:39;5.75;;;4.43;;
21488;SDS011;10906;45.194;5.684;2023-04-06T13:14:25;5.45;;;3.78;;
21488;SDS011;10906;45.194;5.684;2023-04-06T13:17:09;5.97;;;3.40;;
21488;SDS011;10906;45.194;5.684;2023-04-06T13:19:53;4.13;;;3.58;;
21488;SDS011;10906;45.194;5.684;2023-04-06T13:22:38;6.22;;;3.60;;
21488;SDS011;10906;45.194;5.684;2023-04-06T13:25:23;4.50;;;3.40;;
21488;SDS011;10906;45.194;5.684;2023-04-06T13:28:07;3.95;;;3.33;;
21488;SDS011;10906;45.194;5.684;2023-04-06T13:30:52;4.50;;;3.30;;
21488;SDS011;10906;45.194;5.684;2023-04-06T13:33:37;6.28;;;3.38;;
21488;SDS011;10906;45.194;5.684;2023-04-06T13:36:22;6.07;;;3.28;;
21488;SDS011;10906;45.194;5.684;2023-04-06T13:39:06;3.70;;;2.97;;
21488;SDS011;10906;45.194;5.684;2023-04-06T13:41:52;4.07;;;2.65;;
21488;SDS011;10906;45.194;5.684;2023-04-06T13:44:39;4.13;;;2.60;;
21488;SDS011;10906;45.194;5.684;2023-04-06T13:47:23;3.03;;;2.72;;
21488;SDS011;10906;45.194;5.684;2023-04-06T13:50:08;2.53;;;2.33;;
21488;SDS011;10906;45.194;5.684;2023-04-06T13:52:53;3.90;;;2.30;;
21488;SDS011;10906;45.194;5.684;2023-04-06T13:55:37;4.03;;;2.60;;
21488;SDS011;10906;45.194;5.684;2023-04-06T13:58:21;3.00;;;2.70;;
21488;SDS011;10906;45.194;5.684;2023-04-06T14:01:07;5.20;;;2.53;;
21488;SDS011;10906;45.194;5.684;2023-04-06T14:03:55;5.55;;;2.22;;
21488;SDS011;10906;45.194;5.684;2023-04-06T14:06:46;2.85;;;2.20;;
21488;SDS011;10906;45.194;5.684;2023-04-06T14:09:33;3.05;;;2.40;;
21488;SDS011;10906;45.194;5.684;2023-04-06T14:12:18;5.47;;;2.60;;
21488;SDS011;10906;45.194;5.684;2023-04-06T14:15:02;5.15;;;2.30;;
21488;SDS011;10906;45.194;5.684;2023-04-06T14:17:46;2.72;;;2.03;;
21488;SDS011;10906;45.194;5.684;2023-04-06T14:20:31;2.60;;;1.80;;
21488;SDS011;10906;45.194;5.684;2023-04-06T14:23:16;2.22;;;1.75;;
21488;SDS011;10906;45.194;5.684;2023-04-06T14:26:04;2.70;;;1.80;;
21488;SDS011;10906;45.194;5.684;2023-04-06T14:28:49;2.00;;;1.70;;
21488;SDS011;10906;45.194;5.684;2023-04-06T14:31:34;2.92;;;1.60;;
21488;SDS011;10906;45.194;5.684;2023-04-06T14:34:18;2.13;;;1.55;;
21488;SDS011;10906;45.194;5.684;2023-04-06T14:37:03;4.07;;;1.65;;
21488;SDS011;10906;45.194;5.684;2023-04-06T14:39:48;3.28;;;1.50;;
21488;SDS011;10906;45.194;5.684;2023-04-06T14:42:32;3.33;;;1.75;;
21488;SDS011;10906;45.194;5.684;2023-04-06T14:45:17;3.30;;;1.92;;
21488;SDS011;10906;45.194;5.684;2023-04-06T14:48:03;5.40;;;2.22;;
21488;SDS011;10906;45.194;5.684;2023-04-06T14:50:53;3.25;;;2.10;;
21488;SDS011;10906;45.194;5.684;2023-04-06T14:53:38;2.55;;;1.95;;
21488;SDS011;10906;45.194;5.684;2023-04-06T14:56:23;2.90;;;2.00;;
21488;SDS011;10906;45.194;5.684;2023-04-06T14:59:08;2.00;;;1.60;;
21488;SDS011;10906;45.194;5.684;2023-04-06T15:04:36;4.57;;;1.60;;
21488;SDS011;10906;45.194;5.684;2023-04-06T15:07:22;1.95;;;1.63;;
21488;SDS011;10906;45.194;5.684;2023-04-06T15:10:07;2.42;;;1.60;;
21488;SDS011;10906;45.194;5.684;2023-04-06T15:12:52;2.53;;;1.60;;
21488;SDS011;10906;45.194;5.684;2023-04-06T15:15:36;3.33;;;1.83;;
21488;SDS011;10906;45.194;5.684;2023-04-06T15:18:21;2.90;;;1.70;;
21488;SDS011;10906;45.194;5.684;2023-04-06T15:23:51;1.92;;;1.38;;
21488;SDS011;10906;45.194;5.684;2023-04-06T15:26:35;3.60;;;1.50;;
21488;SDS011;10906;45.194;5.684;2023-04-06T15:29:23;1.35;;;1.25;;
21488;SDS011;10906;45.194;5.684;2023-04-06T15:32:08;1.50;;;1.10;;
21488;SDS011;10906;45.194;5.684;2023-04-06T15:34:53;1.63;;;1.40;;
21488;SDS011;10906;45.194;5.684;2023-04-06T15:37:43;1.67;;;1.23;;
21488;SDS011;10906;45.194;5.684;2023-04-06T15:43:11;1.33;;;1.17;;
21488;SDS011;10906;45.194;5.684;2023-04-06T15:45:56;1.77;;;1.20;;
21488;SDS011;10906;45.194;5.684;2023-04-06T15:48:41;2.85;;;1.33;;
21488;SDS011;10906;45.194;5.684;2023-04-06T15:51:26;1.60;;;1.20;;
21488;SDS011;10906;45.194;5.684;2023-04-06T15:57:41;1.35;;;1.20;;
21488;SDS011;10906;45.194;5.684;2023-04-06T16:00:25;1.90;;;1.25;;
21488;SDS011;10906;45.194;5.684;2023-04-06T16:03:29;2.50;;;1.50;;
21488;SDS011;10906;45.194;5.684;2023-04-06T16:22:47;2.15;;;1.13;;
21488;SDS011;10906;45.194;5.684;2023-04-06T16:25:49;3.90;;;1.10;;
21488;SDS011;10906;45.194;5.684;2023-04-06T16:28:36;2.58;;;1.20;;
21488;SDS011;10906;45.194;5.684;2023-04-06T16:31:23;3.22;;;1.10;;
21488;SDS011;10906;45.194;5.684;2023-04-06T16:34:16;6.75;;;1.10;;
21488;SDS011;10906;45.194;5.684;2023-04-06T16:40:40;1.35;;;1.00;;
21488;SDS011;10906;45.194;5.684;2023-04-06T16:44:04;1.55;;;1.02;;
21488;SDS011;10906;45.194;5.684;2023-04-06T16:47:40;3.40;;;1.20;;
21488;SDS011;10906;45.194;5.684;2023-04-06T16:50:35;1.13;;;0.95;;
21488;SDS011;10906;45.194;5.684;2023-04-06T16:53:19;4.15;;;1.00;;
21488;SDS011;10906;45.194;5.684;2023-04-06T16:56:04;2.78;;;1.17;;
21488;SDS011;10906;45.194;5.684;2023-04-06T16:58:49;3.90;;;1.33;;
21488;SDS011;10906;45.194;5.684;2023-04-06T17:01:35;1.15;;;0.75;;
21488;SDS011;10906;45.194;5.684;2023-04-06T17:32:56;5.35;;;1.13;;
21488;SDS011;10906;45.194;5.684;2023-04-06T17:35:50;2.63;;;1.17;;
21488;SDS011;10906;45.194;5.684;2023-04-06T17:38:34;2.97;;;1.35;;
21488;SDS011;10906;45.194;5.684;2023-04-06T17:41:19;4.68;;;1.30;;
21488;SDS011;10906;45.194;5.684;2023-04-06T17:44:04;5.35;;;1.40;;
21488;SDS011;10906;45.194;5.684;2023-04-06T17:46:49;4.25;;;1.30;;
21488;SDS011;10906;45.194;5.684;2023-04-06T17:49:33;2.35;;;1.50;;
21488;SDS011;10906;45.194;5.684;2023-04-06T17:52:19;1.38;;;1.00;;
21488;SDS011;10906;45.194;5.684;2023-04-06T17:55:04;2.95;;;0.90;;
21488;SDS011;10906;45.194;5.684;2023-04-06T17:57:49;1.85;;;1.00;;
21488;SDS011;10906;45.194;5.684;2023-04-06T18:00:33;1.92;;;1.27;;
21488;SDS011;10906;45.194;5.684;2023-04-06T18:03:18;1.42;;;1.13;;
21488;SDS011;10906;45.194;5.684;2023-04-06T18:06:09;2.05;;;1.45;;
21488;SDS011;10906;45.194;5.684;2023-04-06T18:08:58;2.25;;;1.52;;
21488;SDS011;10906;45.194;5.684;2023-04-06T18:11:42;2.03;;;1.50;;
21488;SDS011;10906;45.194;5.684;2023-04-06T18:14:27;2.05;;;1.10;;
21488;SDS011;10906;45.194;5.684;2023-04-06T18:17:11;2.05;;;1.40;;
21488;SDS011;10906;45.194;5.684;2023-04-06T18:19:56;1.48;;;1.33;;
21488;SDS011;10906;45.194;5.684;2023-04-06T18:22:40;4.40;;;1.27;;
21488;SDS011;10906;45.194;5.684;2023-04-06T18:25:25;3.08;;;1.30;;
21488;SDS011;10906;45.194;5.684;2023-04-06T18:28:10;3.22;;;1.30;;
21488;SDS011;10906;45.194;5.684;2023-04-06T18:30:54;1.75;;;1.10;;
21488;SDS011;10906;45.194;5.684;2023-04-06T18:33:39;1.33;;;1.02;;
21488;SDS011;10906;45.194;5.684;2023-04-06T18:36:23;1.20;;;1.08;;
21488;SDS011;10906;45.194;5.684;2023-04-06T18:39:08;7.53;;;1.40;;
21488;SDS011;10906;45.194;5.684;2023-04-06T18:41:57;3.65;;;1.10;;
21488;SDS011;10906;45.194;5.684;2023-04-06T18:48:17;2.03;;;1.38;;
21488;SDS011;10906;45.194;5.684;2023-04-06T18:51:02;5.10;;;1.00;;
21488;SDS011;10906;45.194;5.684;2023-04-06T18:53:46;3.72;;;1.38;;
21488;SDS011;10906;45.194;5.684;2023-04-06T18:56:31;2.53;;;1.50;;
21488;SDS011;10906;45.194;5.684;2023-04-06T18:59:15;3.33;;;1.40;;
21488;SDS011;10906;45.194;5.684;2023-04-06T19:02:00;2.00;;;1.27;;
21488;SDS011;10906;45.194;5.684;2023-04-06T19:04:45;1.58;;;1.10;;
21488;SDS011;10906;45.194;5.684;2023-04-06T19:07:29;5.85;;;1.67;;
21488;SDS011;10906;45.194;5.684;2023-04-06T19:10:17;2.17;;;1.30;;
21488;SDS011;10906;45.194;5.684;2023-04-06T19:13:02;1.70;;;1.00;;
21488;SDS011;10906;45.194;5.684;2023-04-06T19:15:46;1.15;;;1.05;;
21488;SDS011;10906;45.194;5.684;2023-04-06T19:21:15;3.05;;;1.10;;
21488;SDS011;10906;45.194;5.684;2023-04-06T19:46:51;3.42;;;1.02;;
21488;SDS011;10906;45.194;5.684;2023-04-06T19:53:12;4.20;;;1.48;;
21488;SDS011;10906;45.194;5.684;2023-04-06T19:56:00;1.65;;;1.23;;
21488;SDS011;10906;45.194;5.684;2023-04-06T19:58:54;3.28;;;1.17;;
21488;SDS011;10906;45.194;5.684;2023-04-06T20:09:00;2.30;;;1.65;;
21488;SDS011;10906;45.194;5.684;2023-04-06T20:11:45;2.33;;;1.35;;
21488;SDS011;10906;45.194;5.684;2023-04-06T20:14:30;2.95;;;1.70;;
21488;SDS011;10906;45.194;5.684;2023-04-06T20:17:20;2.95;;;1.88;;
21488;SDS011;10906;45.194;5.684;2023-04-06T20:20:05;3.40;;;2.13;;
21488;SDS011;10906;45.194;5.684;2023-04-06T20:38:27;3.38;;;1.77;;
21488;SDS011;10906;45.194;5.684;2023-04-06T20:42:10;3.33;;;1.80;;
21488;SDS011;10906;45.194;5.684;2023-04-06T20:45:36;3.10;;;1.48;;
21488;SDS011;10906;45.194;5.684;2023-04-06T21:43:49;5.78;;;1.60;;
